Date,TemperatureHighF,TemperatureAvgF,TemperatureLowF,DewpointHighF,DewpointAvgF,DewpointLowF,HumidityHigh,HumidityAvg,HumidityLow,PressureMaxIn,PressureMinIn,WindSpeedMaxMPH,WindSpeedAvgMPH,GustSpeedMaxMPH,PrecipitationSumIn
2013-1-1,41.0,34.6,29.5,37.7,31.4,26.1,91,88,85,30.52,30.36,2,0,2,0.00
2013-1-2,43.2,32.6,28.6,38.0,28.6,24.8,93,85,75,30.37,30.20,4,0,4,0.02
2013-1-3,42.6,33.5,27.9,37.7,29.6,24.2,92,85,79,30.21,30.08,6,0,6,0.16
2013-1-4,42.4,39.6,36.5,40.0,37.1,33.0,92,91,87,30.29,30.13,5,0,5,0.08
2013-1-5,42.1,40.2,37.0,40.3,38.2,34.6,94,93,91,30.17,30.04,6,1,8,0.22
2013-1-6,43.3,40.8,36.5,40.3,37.7,33.5,92,89,85,30.11,29.91,9,0,9,0.35
2013-1-7,47.3,41.9,35.4,45.7,39.7,32.7,96,92,89,30.09,29.74,10,1,10,0.33
2013-1-8,48.4,40.7,36.1,47.3,38.9,33.7,96,93,91,30.12,29.57,11,1,11,1.75
2013-1-9,45.1,41.0,33.4,42.9,34.0,26.9,92,76,67,29.89,29.60,11,3,11,0.02
2013-1-10,41.5,36.5,29.1,33.0,29.0,23.1,85,75,63,30.13,29.89,7,1,8,0.00
2013-1-11,39.7,27.6,24.1,29.1,20.5,17.7,83,75,54,30.31,30.13,3,0,3,0.00
2013-1-12,38.7,28.7,23.7,26.9,21.0,17.7,81,73,59,30.43,30.30,4,0,5,0.00
2013-1-13,35.4,31.6,26.2,28.4,25.2,19.9,80,77,74,30.47,30.42,0,0,2,0.00
2013-1-14,37.4,35.3,33.6,33.5,30.8,27.8,86,84,78,30.56,30.44,3,0,3,0.10
2013-1-15,39.7,36.4,34.2,36.4,32.8,30.6,89,87,86,30.70,30.56,1,0,1,0.02
2013-1-16,39.4,36.5,32.4,35.0,32.0,26.6,89,84,79,30.68,30.53,1,0,4,0.00
2013-1-17,43.2,30.9,27.7,38.7,26.5,23.7,90,84,76,30.54,30.27,4,0,4,0.00
2013-1-18,41.4,38.2,36.0,35.7,33.6,31.4,88,84,78,30.34,30.25,5,0,5,0.00
2013-1-19,43.2,37.6,33.3,36.9,32.4,28.6,86,82,75,30.39,30.33,6,0,6,0.00
2013-1-20,39.6,36.0,32.5,36.1,32.4,28.8,90,87,84,30.40,30.27,6,0,6,0.00
2013-1-21,38.7,35.2,32.4,34.6,31.5,28.4,89,86,83,30.27,30.12,2,0,2,0.00
2013-1-22,42.4,35.7,32.7,36.8,30.7,29.0,88,82,73,30.14,29.90,2,0,3,0.00
2013-1-23,41.9,39.1,35.4,38.8,35.6,30.9,90,87,83,30.06,29.79,5,0,6,0.17
2013-1-24,43.2,38.1,32.4,40.5,34.9,28.9,92,88,84,30.16,29.97,4,0,6,0.16
2013-1-25,52.3,41.8,36.1,46.7,38.3,31.9,93,87,75,30.03,29.86,5,0,6,0.00
2013-1-26,47.1,41.7,38.7,42.3,37.7,34.8,91,86,78,29.99,29.82,4,0,5,0.04
2013-1-27,41.7,37.5,34.0,38.8,34.4,30.6,91,89,86,29.99,29.92,6,0,6,0.06
2013-1-28,42.3,37.2,34.2,37.0,33.5,31.2,92,86,79,30.02,29.93,6,0,6,0.02
2013-1-29,45.1,40.9,36.0,39.8,37.1,32.5,90,86,80,30.27,30.02,1,0,3,0.06
2013-1-30,45.1,42.2,41.2,42.3,39.4,38.2,92,90,87,30.35,30.27,4,0,5,0.02
2013-1-31,51.4,45.1,41.0,47.5,41.9,38.4,92,88,80,30.34,30.24,7,1,8,0.07
2013-2-1,50.4,43.4,36.0,43.7,39.3,32.4,91,86,75,30.42,30.31,4,0,4,0.00
2013-2-2,48.4,41.5,36.1,42.1,37.3,32.9,91,85,73,30.42,30.23,6,0,6,0.00
2013-2-3,44.4,42.2,39.4,40.3,38.8,35.8,90,88,85,30.27,30.13,4,0,6,0.08
2013-2-4,50.4,44.6,41.9,44.2,39.7,37.8,89,83,75,30.13,29.82,6,1,7,0.02
2013-2-5,49.5,44.2,41.4,44.0,39.7,35.9,89,84,77,29.84,29.73,10,1,12,0.18
2013-2-6,47.5,44.4,41.9,40.8,38.1,35.8,83,78,73,29.96,29.70,7,1,10,0.04
2013-2-7,52.7,43.0,33.1,37.8,32.8,27.4,81,68,50,30.18,29.67,11,2,13,0.00
2013-2-8,40.5,36.6,32.9,36.8,32.4,27.9,87,85,81,30.27,30.19,3,0,3,0.02
2013-3-24,54.1,42.0,32.2,33.2,28.7,23.9,75,61,40,30.30,30.14,5,1,5,0.00
2013-3-25,61.7,46.5,35.1,36.1,31.2,26.2,78,57,35,30.13,29.95,5,1,5,0.00
2013-3-26,62.4,47.4,35.8,38.1,33.4,25.9,78,60,39,30.01,29.96,4,1,4,0.00
2013-3-27,63.5,49.2,37.4,43.5,37.9,30.9,85,67,42,29.98,29.94,5,1,5,0.00
2013-3-28,64.6,50.5,38.3,45.4,39.0,33.3,85,67,44,30.11,29.99,4,1,4,0.00
2013-3-29,65.8,49.2,37.9,45.9,39.5,33.8,87,71,47,30.25,30.12,4,1,4,0.00
2013-3-30,67.5,50.4,39.4,46.2,37.9,35.2,90,63,42,30.27,30.09,4,1,4,0.00
2013-3-31,69.4,52.2,43.7,43.1,39.2,35.9,80,64,35,30.09,29.90,6,1,7,0.00
2013-4-1,63.1,50.6,38.8,48.4,41.7,35.0,90,73,53,30.08,29.93,9,1,9,0.00
2013-4-2,61.2,50.4,41.9,45.0,41.1,38.0,87,72,51,30.18,30.09,8,1,8,0.00
2013-4-3,62.2,52.1,45.1,47.4,42.9,38.7,84,72,52,30.18,29.96,5,1,6,0.00
2013-4-4,52.9,49.4,46.4,48.4,44.6,40.3,92,84,76,29.96,29.56,7,0,7,0.51
2013-4-5,58.5,52.0,48.2,48.5,46.1,43.1,93,81,65,29.79,29.61,8,1,10,0.10
2013-4-6,57.7,49.7,41.7,46.1,38.8,35.5,90,67,46,29.85,29.60,7,2,9,0.10
2013-4-7,54.5,49.2,41.7,43.0,40.1,38.0,89,71,60,29.82,29.57,7,1,7,0.14
2013-4-8,63.1,52.6,43.2,46.0,41.8,37.8,85,67,51,30.21,29.83,7,1,8,0.00
2013-4-9,52.2,47.5,42.6,45.1,41.5,37.3,86,79,72,30.31,30.14,2,0,2,0.04
2013-4-10,60.3,52.1,46.9,47.8,40.7,36.2,91,66,56,30.17,29.82,10,3,10,0.33
2013-4-11,58.5,54.3,41.2,37.7,35.4,33.4,76,50,41,30.27,30.17,6,2,6,0.00
2013-4-12,44.8,42.0,37.0,39.1,36.8,30.5,86,82,68,30.14,29.63,17,2,18,0.16
2013-4-13,54.3,44.3,35.1,40.7,33.8,27.0,80,67,53,29.96,29.69,9,1,9,0.00
2013-4-14,38.3,37.2,35.4,34.0,32.5,29.8,85,83,80,29.98,29.95,0,0,2,0.00
2013-4-15,60.3,51.6,37.8,43.3,38.6,30.6,85,62,47,30.17,29.91,6,1,6,0.09
2013-4-16,64.6,52.9,36.0,45.0,34.4,28.6,87,51,36,30.36,30.17,7,1,7,0.00
2013-4-17,61.2,54.4,40.3,43.6,38.9,30.1,75,56,44,30.40,30.35,11,2,11,0.00
2013-4-18,52.7,48.4,43.5,45.9,43.2,35.4,91,82,63,30.41,30.13,6,1,9,0.36
2013-4-19,59.5,51.9,48.0,52.3,47.5,43.0,96,86,70,30.14,30.03,5,1,8,0.31
2013-4-20,62.8,52.5,44.8,46.8,42.2,35.9,89,69,53,30.21,30.11,11,2,11,0.00
2013-4-21,57.4,48.5,36.7,41.7,37.0,30.0,77,65,51,30.39,30.19,9,2,9,0.02
2013-4-22,36.7,36.7,36.7,30.1,30.1,30.1,77,77,77,30.39,30.39,1,1,1,0.00
2013-4-23,65.3,50.4,35.8,41.8,35.2,26.3,81,58,38,30.41,30.26,6,1,8,0.00
2013-4-24,69.4,54.0,40.3,46.7,39.2,32.7,84,60,34,30.32,30.03,6,1,7,0.00
2013-4-25,70.7,55.1,40.6,48.4,41.6,35.2,83,63,38,30.10,30.02,6,1,6,0.00
2013-4-26,65.8,52.7,41.2,47.9,40.9,36.8,89,66,45,30.22,30.09,7,1,9,0.00
2013-4-27,57.6,54.1,50.2,45.9,41.0,36.5,69,61,53,30.16,30.06,11,2,11,0.00
2013-4-28,63.7,51.8,41.2,41.6,36.6,31.9,73,57,38,30.17,29.87,13,3,13,0.00
2013-4-29,56.8,48.8,43.3,40.5,34.1,27.6,74,58,36,30.07,29.87,14,4,14,0.00
2013-4-30,63.3,53.0,39.4,37.1,32.7,28.5,75,47,35,30.41,30.12,6,1,6,0.00
2013-5-1,67.1,50.8,35.2,44.5,35.4,27.6,86,58,28,30.59,30.42,6,1,7,0.00
2013-5-2,64.6,53.2,38.7,45.5,38.3,31.1,79,58,41,30.55,30.38,8,1,8,0.00
2013-5-3,74.8,60.2,47.5,48.9,43.5,38.1,84,57,34,30.42,30.23,6,1,6,0.00
2013-5-4,80.8,64.4,53.1,48.5,43.6,37.9,68,49,29,30.26,30.00,8,1,8,0.00
2013-5-5,83.8,67.7,54.1,51.3,45.5,41.0,68,47,29,30.01,29.76,6,1,7,0.00
2013-5-6,84.9,66.6,50.9,51.9,46.2,41.3,76,51,28,29.85,29.73,4,0,10,0.00
2013-5-7,70.5,63.4,52.3,51.7,48.3,44.1,78,59,49,29.94,29.77,10,2,10,0.00
2013-5-8,69.6,60.6,49.6,51.5,47.6,44.1,87,63,50,30.11,29.94,10,2,10,0.00
2013-5-9,73.8,62.9,45.5,52.7,48.3,42.1,89,60,44,30.20,30.09,8,1,8,0.00
2013-5-10,70.5,62.6,45.0,52.0,48.1,41.3,88,60,49,30.19,30.10,5,1,6,0.00
2013-5-11,69.3,61.4,49.5,52.7,49.1,44.2,86,65,48,30.13,29.99,6,1,8,0.10
2013-5-12,69.3,61.5,54.0,61.5,55.2,50.7,96,80,68,30.04,29.95,6,1,6,0.23
2013-5-13,62.4,54.8,50.0,54.4,46.0,40.7,91,72,62,30.13,29.88,10,3,16,0.08
2013-5-14,68.7,60.2,49.3,47.3,42.9,36.6,80,54,38,30.19,30.10,7,2,7,0.02
2013-5-15,70.0,56.8,49.6,49.4,45.5,43.0,82,67,44,30.10,29.98,4,0,5,0.06
2013-5-16,71.2,57.8,50.7,55.6,49.2,44.3,89,75,50,30.00,29.87,0,0,0,0.04
2013-5-17,65.7,55.5,48.0,53.9,48.8,44.1,90,79,62,30.01,29.90,9,0,9,0.02
2013-5-18,63.0,55.9,51.4,51.3,48.1,44.8,87,76,60,30.24,30.01,7,1,7,0.02
2013-5-19,72.0,59.8,49.3,49.4,46.1,41.5,86,63,40,30.38,30.25,8,1,8,0.00
2013-5-20,68.5,55.9,43.9,49.9,45.5,40.0,88,70,49,30.32,29.91,8,1,8,0.02
2013-5-21,59.2,51.5,45.1,50.2,45.8,40.4,88,81,64,29.92,29.77,5,0,5,0.27
2013-5-22,65.8,53.9,40.6,53.4,43.1,38.2,96,69,47,29.93,29.81,8,1,8,0.18
2013-5-23,69.8,56.0,44.4,52.6,44.3,37.1,89,67,40,29.98,29.88,11,1,11,0.16
2013-5-24,70.5,57.7,42.4,52.2,43.0,37.1,88,61,39,30.00,29.96,12,2,12,0.00
2013-5-25,71.1,57.7,50.4,50.5,45.4,41.4,81,65,41,30.01,29.97,7,1,8,0.00
2013-5-26,67.6,57.3,50.5,53.1,48.1,42.3,82,72,56,29.98,29.92,6,1,11,0.04
2013-5-27,60.3,55.1,51.4,55.0,51.1,47.9,90,87,77,29.92,29.68,8,1,8,0.47
2013-5-28,59.9,54.7,52.0,54.9,50.9,48.6,93,87,76,29.85,29.72,5,0,6,0.13
2013-5-29,59.4,53.5,50.4,54.7,49.8,46.0,92,87,81,29.91,29.67,3,0,4,0.14
2013-5-30,65.3,54.9,47.8,52.0,47.7,43.7,87,77,59,30.20,29.92,5,1,7,0.14
2013-5-31,71.2,59.0,49.3,51.8,46.5,40.4,88,66,41,30.33,30.20,7,1,7,0.00
2013-6-1,72.9,59.9,49.1,52.7,47.5,40.4,83,65,43,30.23,30.07,6,1,9,0.00
2013-6-2,75.4,63.8,52.2,51.0,46.6,42.8,74,55,39,30.08,30.01,12,2,12,0.00
2013-6-3,74.7,62.1,49.6,53.7,48.6,43.0,86,63,46,30.11,30.04,6,1,7,0.00
2013-6-4,79.7,64.2,47.8,57.8,49.4,43.5,89,62,39,30.13,30.00,5,1,5,0.00
2013-6-5,74.7,61.7,54.0,58.5,50.8,45.1,80,69,51,30.08,29.99,6,1,9,0.00
2013-6-6,78.3,64.7,50.7,54.5,49.7,45.4,83,61,38,30.05,29.96,3,1,3,0.00
2013-6-7,76.5,63.9,54.7,54.6,47.5,44.0,81,56,41,30.08,29.97,5,1,5,0.06
2013-6-8,73.4,60.6,50.0,50.3,46.8,43.6,81,62,43,30.13,30.08,6,1,8,0.00
2013-6-9,74.7,61.5,50.4,52.1,47.8,43.4,82,63,35,30.08,30.00,5,1,5,0.00
2013-6-10,75.2,62.6,47.5,54.7,46.6,41.4,87,58,37,30.01,29.84,6,1,6,0.00
2013-6-11,70.2,60.9,52.7,47.1,43.6,39.9,69,54,41,30.06,29.86,11,2,11,0.00
2013-6-12,73.9,59.3,50.7,53.4,47.0,42.6,81,65,39,30.12,30.05,8,1,9,0.02
2013-6-13,72.9,57.9,47.3,55.9,47.4,42.3,87,71,47,30.16,30.11,5,1,5,0.00
2013-6-15,74.1,68.3,57.6,53.7,51.0,47.9,70,55,47,29.95,29.91,3,0,3,0.00
2013-6-16,73.4,64.6,51.4,54.6,51.0,46.0,83,62,51,30.03,29.95,5,1,5,0.00
2013-6-18,78.3,68.2,53.8,54.7,48.9,44.4,72,52,34,29.93,29.89,7,2,8,0.00
2013-6-19,75.7,64.1,50.5,55.0,48.0,44.8,83,57,42,29.94,29.87,6,2,6,0.00
2013-6-20,60.6,58.6,55.0,53.6,51.0,45.8,81,76,61,30.05,29.88,7,1,7,0.15
2013-6-21,72.7,61.4,52.7,54.4,50.8,47.5,86,69,48,30.15,30.05,9,1,9,0.00
2013-6-22,81.3,65.1,53.8,55.3,50.8,46.5,84,62,38,30.10,29.86,7,1,11,0.00
2013-6-23,67.5,60.7,53.2,58.9,53.5,47.0,85,77,71,29.87,29.59,3,0,5,0.06
2013-6-24,69.3,60.5,55.9,58.2,54.7,51.2,91,81,63,29.67,29.52,5,1,9,0.14
2013-6-25,72.3,59.3,55.6,60.2,54.3,51.3,90,84,61,29.74,29.64,5,0,8,0.06
2013-6-26,70.7,61.9,55.2,59.0,54.6,50.6,89,78,61,30.04,29.78,2,0,2,0.04
2013-6-27,68.2,62.5,57.0,61.5,57.1,52.5,89,83,75,30.19,30.03,3,0,3,0.12
2013-6-28,77.5,68.6,58.6,62.6,59.0,54.2,89,72,57,30.19,30.05,10,1,10,0.00
2013-6-29,85.1,69.6,60.1,64.8,58.0,53.5,89,69,45,30.08,29.97,5,1,6,0.00
2013-6-30,90.5,70.7,55.2,66.1,58.0,50.8,87,67,41,30.00,29.83,8,1,8,0.00
2013-7-1,87.3,70.1,59.7,63.0,54.5,50.1,84,59,41,29.96,29.87,4,0,4,0.00
2013-7-2,84.4,68.5,55.2,59.5,54.1,49.4,83,62,40,30.08,29.96,6,1,7,0.00
2013-7-3,81.0,66.5,54.3,55.8,51.5,47.6,81,61,37,30.13,30.00,5,1,6,0.00
2013-7-4,79.2,63.4,52.2,54.7,49.4,44.7,82,62,39,30.07,29.99,8,1,10,0.00
2013-7-5,79.5,66.2,53.1,55.5,50.8,46.0,81,60,40,30.01,29.92,8,1,8,0.00
2013-7-6,56.7,56.7,56.7,46.6,46.6,46.6,69,69,69,29.96,29.96,0,0,0,0.00
2013-7-7,82.8,67.2,55.6,57.7,53.2,48.4,84,63,40,29.93,29.85,6,1,6,0.00
2013-7-8,80.1,67.0,56.3,59.1,53.9,50.1,84,65,43,30.07,29.92,6,1,6,0.00
2013-7-9,85.8,68.6,54.3,59.8,54.0,48.9,84,62,38,30.10,29.96,6,1,6,0.00
2013-7-10,81.1,67.3,55.4,57.7,51.5,44.4,83,60,38,30.02,29.88,5,1,5,0.00
2013-7-11,77.4,64.5,53.8,49.1,44.6,40.5,67,50,32,30.04,29.91,10,2,10,0.00
2013-7-12,77.4,76.9,76.5,47.6,47.5,47.5,36,36,35,30.01,30.01,6,4,8,0.00
2013-7-13,82.8,71.0,50.9,54.6,49.2,44.3,83,48,31,30.19,30.06,5,1,5,0.00
2013-7-14,80.6,64.2,52.0,55.7,50.2,45.4,82,63,37,30.12,30.03,5,1,6,0.00
2013-7-15,88.2,72.5,57.6,53.2,48.0,39.0,68,44,27,30.07,29.90,13,1,13,0.00
2013-7-16,86.9,72.0,60.4,55.3,49.4,39.3,67,46,31,29.92,29.80,3,0,3,0.00
2013-7-17,81.3,70.4,60.1,57.8,52.4,48.2,68,54,40,30.13,29.83,10,2,11,0.00
2013-7-18,83.5,70.8,54.5,57.9,53.4,48.8,83,57,39,30.21,30.09,8,2,8,0.00
2013-7-19,84.9,70.5,53.8,59.6,54.4,48.6,84,59,41,30.14,30.00,5,1,6,0.00
2013-7-20,80.1,67.9,53.8,58.9,52.7,48.4,85,60,41,30.04,29.93,8,1,8,0.00
2013-7-21,78.4,65.6,52.5,56.9,52.7,47.2,86,65,44,29.95,29.88,9,2,9,0.00
2013-7-22,80.1,65.8,53.2,56.8,53.1,47.9,85,65,44,30.03,29.91,9,2,9,0.00
2013-7-23,87.1,70.4,53.1,60.0,53.3,46.9,86,58,32,30.06,29.95,6,1,9,0.00
2013-7-24,84.0,69.6,53.1,59.5,52.6,46.8,81,57,36,30.03,29.97,4,1,5,0.00
2013-7-25,81.0,68.7,52.7,58.8,52.4,46.8,83,59,39,30.09,29.99,5,1,5,0.00
2013-7-26,84.7,68.9,53.1,56.6,51.7,46.5,86,58,33,30.13,30.05,5,1,7,0.00
2013-7-27,81.1,66.6,51.4,54.4,49.9,44.6,85,58,35,30.13,29.97,6,1,7,0.00
2013-7-28,79.0,67.5,53.4,56.6,52.0,44.8,83,60,42,29.98,29.90,9,2,9,0.00
2013-7-29,77.7,64.8,54.0,55.2,52.0,48.1,83,65,45,29.99,29.91,9,2,9,0.00
2013-7-30,73.0,63.5,52.2,56.1,52.1,47.1,87,68,52,30.11,29.96,8,2,9,0.00
2013-7-31,74.8,63.7,53.1,56.7,52.9,48.8,88,69,50,30.09,29.96,6,1,7,0.00
2013-8-1,60.3,55.7,53.8,53.1,50.5,48.7,86,83,74,30.01,29.98,5,0,5,0.00
2013-8-2,61.7,58.4,56.8,57.1,53.6,50.6,87,84,71,30.11,29.98,3,0,3,0.19
2013-8-3,79.9,65.5,56.8,59.5,55.4,50.5,89,72,44,30.13,30.04,4,0,5,0.00
2013-8-4,84.9,69.7,55.2,60.8,55.7,50.9,86,64,40,30.06,29.93,6,1,10,0.00
2013-8-5,81.9,68.8,54.7,59.7,53.6,48.1,89,61,39,30.00,29.90,5,1,6,0.00
2013-8-6,79.7,65.9,51.3,55.3,51.0,45.8,84,61,40,29.99,29.89,5,0,10,0.00
2013-8-7,81.5,67.2,52.7,57.3,51.5,46.8,83,59,38,29.98,29.90,4,1,5,0.00
2013-8-8,85.1,67.7,53.2,58.5,52.6,47.3,85,61,36,30.00,29.89,6,1,6,0.00
2013-8-9,86.4,69.0,52.0,61.0,53.1,45.9,82,60,37,29.93,29.79,6,1,9,0.00
2013-8-10,79.0,65.3,55.6,58.9,54.0,48.3,83,68,45,29.97,29.83,7,1,7,0.02
2013-8-11,75.6,62.8,56.1,59.7,51.8,48.4,86,69,45,30.04,29.95,8,1,8,0.06
2013-8-12,77.4,65.4,54.3,56.7,52.5,48.3,83,65,45,30.04,29.98,6,1,8,0.00
2013-8-13,79.3,66.2,54.0,56.2,52.0,47.3,84,63,40,30.08,29.92,5,1,6,0.00
2013-8-14,73.6,62.8,53.6,56.8,53.5,47.8,85,73,55,29.93,29.87,3,0,4,0.02
2013-8-15,69.3,61.8,55.6,58.9,55.8,51.4,89,81,66,29.97,29.90,4,0,4,0.04
2013-8-16,79.9,64.9,53.8,62.3,56.6,51.1,96,76,52,30.00,29.94,5,0,5,0.00
2013-8-17,82.0,68.2,57.7,59.1,54.6,48.7,83,64,41,30.03,29.95,9,1,9,0.00
2013-8-18,79.5,65.7,54.9,57.7,52.0,46.6,80,63,42,30.09,30.03,8,1,8,0.00
2013-8-19,80.1,65.1,54.7,56.7,51.7,47.4,78,63,42,30.09,30.02,6,1,8,0.00
2013-8-20,81.0,65.9,53.2,55.0,48.9,39.8,86,58,31,30.16,30.07,6,1,8,0.00
2013-8-21,85.6,67.6,50.9,54.7,49.1,40.8,80,55,29,30.09,29.93,5,1,6,0.00
2013-8-22,84.0,69.4,52.5,57.4,52.3,42.7,83,57,37,29.94,29.77,6,1,7,0.00
2013-8-24,74.8,63.5,55.0,54.1,49.9,47.6,76,62,46,29.89,29.85,6,0,6,0.02
2013-8-25,80.8,64.5,51.8,57.1,50.4,45.5,87,63,37,29.93,29.83,10,1,10,0.00
2013-8-26,72.5,61.7,52.7,57.2,51.6,46.1,82,70,54,29.90,29.80,5,0,5,0.00
2013-8-27,72.9,64.3,55.8,59.1,54.8,49.8,85,72,57,29.91,29.78,9,0,9,0.41
2013-8-28,76.3,65.6,58.1,62.1,58.4,54.4,90,78,60,29.89,29.81,6,0,6,0.08
2013-8-29,69.1,64.1,59.7,65.8,60.5,56.4,92,88,82,29.91,29.83,9,0,9,0.71
2013-8-30,76.6,65.4,56.5,61.5,56.2,50.5,90,74,50,30.14,29.99,6,1,6,0.00
2013-8-31,77.4,64.3,54.3,60.4,55.3,50.4,96,74,49,30.08,29.82,6,1,6,0.02
2013-9-1,77.4,64.3,53.2,58.6,53.7,49.7,90,70,49,29.86,29.76,6,1,6,0.00
2013-9-2,70.3,61.2,54.7,60.4,54.2,49.6,87,78,64,29.91,29.84,4,0,4,0.04
2013-9-3,74.7,62.5,54.5,64.3,57.1,51.0,96,83,63,30.02,29.91,4,0,6,0.24
2013-9-4,70.7,62.0,55.2,62.3,56.9,52.0,92,84,69,30.05,29.98,4,0,5,0.00
2013-9-5,67.1,60.3,54.3,61.2,56.9,51.4,96,89,81,30.05,29.94,6,0,7,0.02
2013-9-6,67.5,61.1,55.6,60.8,56.6,52.7,92,85,78,30.05,29.88,2,0,2,0.00
2013-9-7,74.7,65.7,56.5,62.0,57.0,52.5,96,74,61,30.07,30.01,6,1,6,0.02
2013-9-8,76.5,63.7,54.9,63.5,56.1,49.6,96,78,56,30.09,30.00,6,1,6,0.00
2013-9-9,77.4,63.1,52.2,62.5,55.0,48.7,91,76,54,30.06,29.97,5,1,6,0.00
2013-9-10,79.0,65.6,54.0,60.6,55.0,50.8,96,71,47,30.01,29.89,8,1,8,0.00
2013-9-11,86.7,70.1,58.5,60.1,55.1,49.3,85,62,36,29.96,29.87,8,1,8,0.00
2013-9-12,76.8,65.0,56.1,59.4,53.8,49.5,84,68,50,29.97,29.86,4,0,6,0.00
2013-9-13,70.7,60.9,54.0,59.4,54.3,49.8,90,80,63,29.94,29.83,7,1,8,0.00
2013-9-14,71.4,60.8,54.9,61.0,55.2,50.2,90,82,66,29.88,29.74,5,1,5,0.00
2013-9-15,61.0,56.7,54.9,57.1,53.5,51.3,91,89,84,29.74,29.69,4,0,4,0.00
2013-9-16,70.5,62.4,54.5,63.4,56.7,51.0,96,82,70,29.89,29.74,5,0,9,0.12
2013-9-17,69.1,59.2,52.7,56.2,52.1,48.4,96,78,59,29.88,29.82,5,1,5,0.00
2013-9-18,71.8,59.4,52.0,54.3,49.7,45.7,88,72,48,30.04,29.88,7,1,7,0.00
2013-9-19,73.9,60.6,52.2,53.2,49.2,44.5,87,68,44,30.03,29.72,5,1,6,0.00
2013-9-20,66.6,56.7,48.4,53.1,49.0,44.0,87,76,59,29.73,29.56,0,0,1,0.20
2013-9-21,66.6,58.4,53.6,56.9,52.8,49.1,96,82,67,29.69,29.60,6,1,6,0.04
2013-9-22,62.4,56.4,54.3,56.5,51.4,49.1,92,83,74,29.65,29.45,10,2,10,0.25
2013-9-23,65.8,56.3,47.8,52.8,47.4,41.1,85,73,53,29.92,29.65,8,2,9,0.04
2013-9-24,61.0,53.7,47.3,52.7,47.6,41.1,87,80,67,29.92,29.83,5,0,6,0.06
2013-9-25,66.6,54.7,48.2,51.3,47.6,42.6,96,78,56,29.99,29.86,7,1,8,0.31
2013-9-26,66.6,54.7,49.6,52.7,47.2,43.4,90,77,57,30.11,29.99,6,1,7,0.00
2013-9-27,56.5,53.7,51.8,52.9,48.9,43.9,89,84,71,30.05,29.78,6,0,6,0.24
2013-9-28,55.9,53.4,51.6,54.8,50.8,47.9,96,91,82,29.78,29.21,11,2,12,0.92
2013-9-29,56.3,52.5,50.2,53.1,49.5,45.8,93,90,83,29.44,29.03,9,2,11,0.49
2013-9-30,56.3,51.8,47.8,50.0,46.3,43.5,86,81,75,29.84,29.24,13,2,19,0.12
2013-10-1,56.5,50.5,47.3,51.0,46.3,43.5,92,86,72,30.05,29.84,7,1,7,0.26
2013-10-2,54.3,50.8,48.6,53.2,48.3,46.9,96,91,86,30.18,30.03,5,0,6,0.37
2013-10-3,58.8,49.7,42.4,51.2,46.2,39.7,96,88,71,30.44,30.19,4,0,4,0.20
2013-10-4,56.5,48.9,40.6,52.6,45.1,38.8,96,87,73,30.47,30.34,4,0,6,0.00
2013-10-5,59.0,52.6,50.9,52.1,48.8,47.1,90,87,77,30.34,30.30,2,0,3,0.00
2013-10-26,56.7,51.4,47.8,50.8,47.5,45.2,96,87,77,30.33,30.17,1,0,1,0.00
2013-10-27,62.1,52.8,45.9,46.8,44.7,41.0,89,75,52,30.15,29.94,6,1,6,0.02
2013-10-28,59.2,47.7,39.6,41.0,35.6,29.3,85,65,40,30.04,29.92,4,1,4,0.00
2013-10-29,56.8,43.3,34.9,41.2,34.2,28.8,83,71,53,30.00,29.95,5,1,5,0.00
2013-10-30,54.3,46.3,37.2,45.2,40.5,32.5,87,80,67,30.09,30.00,4,0,4,0.00
2013-10-31,53.1,50.5,48.4,49.4,46.8,45.0,90,88,84,30.22,30.03,3,0,3,0.12
2013-11-1,54.3,52.3,50.2,49.8,48.1,47.2,91,86,81,30.23,29.77,6,1,8,0.18
2013-11-2,50.9,45.9,41.9,48.9,44.2,40.0,96,94,90,29.84,29.41,18,2,18,1.67
2013-11-3,51.3,43.1,34.7,42.9,37.6,30.8,92,81,69,30.10,29.84,6,0,8,0.00
2013-11-4,48.6,41.1,34.5,44.2,37.4,31.2,94,87,79,30.18,30.05,6,0,6,0.05
2013-11-5,43.7,41.5,39.0,41.5,39.1,36.3,93,91,86,30.24,30.03,5,0,5,0.10
2013-11-6,50.2,45.3,41.4,47.9,42.8,39.5,96,91,86,30.31,29.98,8,1,8,0.12
2013-11-7,51.8,48.0,44.1,48.7,45.6,41.4,96,91,87,29.98,29.62,7,0,7,0.53
2013-11-8,54.3,46.2,41.2,47.8,42.8,37.6,96,88,69,30.13,29.91,2,0,3,0.02
2013-11-9,50.4,45.6,41.4,45.5,41.6,38.4,92,86,76,30.13,30.08,5,0,5,0.00
2013-11-10,50.4,45.6,41.4,45.2,42.0,38.6,91,87,79,30.18,30.11,7,0,7,0.02
2013-11-11,54.1,46.4,43.5,46.9,41.7,38.4,91,84,68,30.17,29.99,5,0,5,0.00
2013-11-12,57.7,51.7,46.2,53.1,46.3,40.1,90,82,75,30.29,29.95,6,1,9,0.10
2013-11-13,57.6,51.5,44.8,47.2,44.2,39.3,85,76,65,30.38,30.26,9,1,10,0.00
2013-11-14,54.7,47.5,41.9,44.9,40.0,32.5,87,76,55,30.26,30.02,9,1,9,0.02
2013-11-15,48.4,44.2,40.1,43.3,39.1,34.9,86,82,73,30.02,29.25,12,2,12,0.13
2013-11-16,49.6,43.6,34.7,37.4,34.4,29.4,81,70,59,29.70,29.31,9,2,19,0.02
2013-11-17,52.0,44.5,33.4,43.4,37.8,28.5,86,77,64,29.84,29.70,11,2,11,0.02
2013-11-18,47.8,45.3,42.8,42.9,41.0,39.6,91,85,81,29.85,29.53,9,0,9,0.57
2013-11-19,45.1,39.4,35.2,40.0,27.4,14.8,92,65,35,30.08,29.55,10,2,12,0.00
2013-11-20,43.7,34.2,26.8,28.4,22.7,18.7,76,63,52,30.52,30.09,6,1,7,0.00
2013-11-21,43.2,31.8,25.5,31.6,24.1,19.4,82,73,59,30.68,30.52,3,0,3,0.02
2013-11-22,44.6,34.0,26.6,38.4,28.3,21.8,89,80,71,30.67,30.47,3,0,4,0.00
2013-11-23,46.9,38.4,33.3,41.8,33.9,29.3,91,84,74,30.46,30.20,6,0,6,0.00
2013-11-24,50.2,39.3,33.6,43.9,35.1,30.1,92,85,75,30.25,30.18,4,0,5,0.00
2013-11-25,50.7,39.4,34.3,43.8,34.8,31.1,92,84,73,30.30,30.24,4,0,4,0.00
2013-11-26,46.2,39.5,33.3,43.0,35.7,29.8,92,86,82,30.26,30.09,3,0,5,0.02
2013-11-27,38.7,37.9,37.4,35.1,34.1,33.4,87,86,84,30.10,30.06,0,0,0,0.00
2013-11-28,50.4,46.6,35.6,46.2,41.9,32.4,92,84,78,30.16,30.01,3,0,3,0.00
2013-11-29,51.3,46.6,43.9,46.2,42.6,39.3,89,86,80,30.27,30.15,3,0,4,0.06
2013-11-30,48.4,46.5,44.8,47.1,43.9,41.5,96,91,88,30.28,30.00,5,0,6,0.16
2013-12-1,56.1,48.3,40.6,49.5,42.8,30.5,96,82,66,30.00,29.69,13,3,13,0.06
2013-12-2,44.1,37.7,30.7,31.2,27.3,20.7,74,66,58,30.13,29.74,9,2,13,0.00
2013-12-3,41.2,31.6,25.5,24.3,18.6,14.1,65,59,50,30.34,30.14,4,1,7,0.04
2013-12-4,39.0,28.9,23.2,17.4,12.0,7.3,59,50,35,30.38,30.32,6,1,7,0.00
2013-12-5,33.3,28.3,25.0,22.7,14.9,9.1,66,57,49,30.32,30.20,5,0,5,0.00
2013-12-6,29.8,22.9,21.2,9.1,-5.4,-14.7,49,30,19,30.34,30.21,11,3,12,0.00
2013-12-7,32.2,22.3,17.6,2.8,-8.8,-17.1,51,26,19,30.40,30.32,11,1,11,0.00
2013-12-8,33.3,25.4,18.9,18.4,11.8,4.0,63,56,51,30.54,30.39,2,0,3,0.00
2013-12-9,34.3,32.0,26.1,26.5,22.0,15.1,73,66,62,30.54,30.44,5,0,5,0.00
2013-12-10,36.3,34.5,32.7,30.4,27.8,25.0,79,77,72,30.46,30.41,4,0,4,0.00
2013-12-11,41.4,35.0,30.4,32.8,28.3,24.3,81,76,70,30.42,30.14,2,0,2,0.00
2013-12-12,41.2,36.2,30.4,37.7,31.8,24.7,88,84,79,30.13,29.97,2,0,2,0.09
2013-12-13,45.5,43.4,40.8,42.8,40.5,37.8,90,89,89,30.40,30.10,5,0,5,0.02
2013-12-14,47.1,45.6,43.5,44.1,42.6,40.5,91,89,87,30.39,30.27,5,0,9,0.02
2013-12-15,50.9,45.0,35.8,45.8,40.9,31.9,90,86,75,30.40,30.26,9,1,9,0.00
2013-12-16,46.9,38.9,34.0,43.9,35.5,30.6,92,88,85,30.46,30.26,6,0,6,0.02
2013-12-17,44.8,41.2,34.7,41.5,38.4,31.4,93,90,85,30.26,30.03,6,1,6,0.00
2013-12-18,44.1,38.6,29.1,38.7,30.8,23.1,91,74,53,30.25,30.01,10,2,10,0.04
2013-12-19,35.8,31.9,26.6,28.7,24.9,21.0,83,75,65,30.36,30.18,3,0,3,0.00
2013-12-20,34.5,33.3,32.2,31.2,29.3,26.6,88,85,77,30.15,29.70,4,0,6,0.55
2013-12-21,39.6,37.1,34.0,37.4,34.4,30.7,92,90,88,30.15,29.87,0,0,0,0.14
2013-12-22,44.8,40.6,38.5,42.6,38.5,36.0,93,92,91,30.27,30.15,0,0,0,0.25
2013-12-23,50.9,44.6,35.2,47.1,40.3,31.6,96,85,64,30.48,30.04,17,2,17,0.02
2013-12-24,43.9,37.3,33.4,41.5,34.2,29.9,93,89,87,30.59,30.49,2,0,3,0.00
2013-12-25,43.0,38.5,32.7,40.2,35.3,29.6,93,88,84,30.53,30.36,3,0,3,0.02
2013-12-26,47.7,40.0,34.0,41.6,35.6,30.1,89,85,77,30.38,30.19,4,0,6,0.00
2013-12-27,51.8,41.1,34.3,47.1,37.5,30.8,92,87,71,30.34,30.02,10,1,10,0.04
2013-12-28,45.5,38.7,34.0,41.2,35.0,30.4,92,87,81,30.52,30.34,3,0,4,0.00
2013-12-29,45.9,40.9,33.8,42.1,37.7,30.2,92,88,84,30.47,30.30,6,0,8,0.02
2013-12-30,45.5,42.5,39.9,41.9,38.8,36.6,90,87,81,30.29,30.07,6,0,6,0.00
2013-12-31,47.1,44.2,39.6,43.8,40.9,36.6,89,88,86,30.37,30.13,9,1,9,0.00
2014-1-1,46.6,42.4,39.6,43.4,39.4,36.6,91,89,85,30.40,30.24,2,0,2,0.04
2014-1-2,45.5,43.1,40.8,43.3,40.5,37.1,92,91,85,30.24,29.82,11,1,12,0.24